CheckWX is a tool to help pilots better visualize weather data.  It is not intended as a substitute for an official pre-flight weather briefing.

06:09:09 UTC

KXLL METAR
Allentown Queen City Municipal Airport
Allentown, Pennsylvania, USA
Current

34 mins ago

KXLL 310535Z AUTO 34004KT 10SM -DZ BKN028 OVC034 08/06 A2998 RMK AO2
Observed
Mar-31 @ 05:35 UTC
Wind
  • 340° at 4 KTS
Visibility
10 SM
Flight Rules
MVFR
Conditions
Light Drizzle
Cloud Levels
  • Broken at 2,800' AGL
  • Overcast at 3,400' AGL
Temperature
C / 46°F
Dewpoint
C / 43°F
Humidity
87%
Altimeter
29.98" Hg
Pressure
1015.22 hPa
Previous

54 mins ago

KXLL 310515Z AUTO 00000KT 10SM OVC029 09/05 A2998 RMK AO2
Observed
Mar-31 @ 05:15 UTC
Visibility
10 SM
Flight Rules
MVFR
Cloud Levels
  • Overcast at 2,900' AGL
Temperature
C / 48°F
Dewpoint
C / 41°F
Humidity
76%
Altimeter
29.98" Hg
Pressure
1015.22 hPa
Previous

1 hour ago

KXLL 310455Z AUTO 00000KT 10SM -DZ OVC031 09/05 A2998 RMK AO2
Observed
Mar-31 @ 04:55 UTC
Visibility
10 SM
Flight Rules
VFR
Conditions
Light Drizzle
Cloud Levels
  • Overcast at 3,100' AGL
Temperature
C / 48°F
Dewpoint
C / 41°F
Humidity
76%
Altimeter
29.98" Hg
Pressure
1015.22 hPa